sensor_id;sensor_type;location;lat;lon;timestamp;P1;durP1;ratioP1;P2;durP2;ratioP2
25155;SDS011;71253;51.496;7.606;2023-12-28T00:01:16;5.53;;;2.60;;
25155;SDS011;71253;51.496;7.606;2023-12-28T00:06:18;4.53;;;2.17;;
25155;SDS011;71253;51.496;7.606;2023-12-28T00:11:19;6.65;;;2.50;;
25155;SDS011;71253;51.496;7.606;2023-12-28T00:16:21;6.55;;;2.55;;
25155;SDS011;71253;51.496;7.606;2023-12-28T00:21:22;13.38;;;3.00;;
25155;SDS011;71253;51.496;7.606;2023-12-28T00:26:24;7.53;;;2.55;;
25155;SDS011;71253;51.496;7.606;2023-12-28T00:31:36;7.80;;;2.78;;
25155;SDS011;71253;51.496;7.606;2023-12-28T00:36:37;13.27;;;3.30;;
25155;SDS011;71253;51.496;7.606;2023-12-28T00:41:39;6.80;;;2.60;;
25155;SDS011;71253;51.496;7.606;2023-12-28T00:46:40;8.18;;;3.00;;
25155;SDS011;71253;51.496;7.606;2023-12-28T00:51:42;9.27;;;3.70;;
25155;SDS011;71253;51.496;7.606;2023-12-28T00:56:43;8.30;;;3.30;;
25155;SDS011;71253;51.496;7.606;2023-12-28T01:01:45;9.07;;;3.35;;
25155;SDS011;71253;51.496;7.606;2023-12-28T01:06:47;6.90;;;3.28;;
25155;SDS011;71253;51.496;7.606;2023-12-28T01:11:48;8.95;;;2.95;;
25155;SDS011;71253;51.496;7.606;2023-12-28T01:16:50;11.15;;;3.45;;
25155;SDS011;71253;51.496;7.606;2023-12-28T01:21:51;7.93;;;3.08;;
25155;SDS011;71253;51.496;7.606;2023-12-28T01:26:54;9.02;;;2.97;;
25155;SDS011;71253;51.496;7.606;2023-12-28T01:31:56;7.05;;;2.88;;
25155;SDS011;71253;51.496;7.606;2023-12-28T01:36:58;6.15;;;2.90;;
25155;SDS011;71253;51.496;7.606;2023-12-28T01:41:59;8.85;;;2.85;;
25155;SDS011;71253;51.496;7.606;2023-12-28T01:47:01;5.45;;;2.78;;
25155;SDS011;71253;51.496;7.606;2023-12-28T01:52:02;6.53;;;2.95;;
25155;SDS011;71253;51.496;7.606;2023-12-28T01:57:05;9.52;;;3.00;;
25155;SDS011;71253;51.496;7.606;2023-12-28T02:02:07;6.55;;;3.03;;
25155;SDS011;71253;51.496;7.606;2023-12-28T02:07:09;6.50;;;2.85;;
25155;SDS011;71253;51.496;7.606;2023-12-28T02:12:12;7.35;;;3.03;;
25155;SDS011;71253;51.496;7.606;2023-12-28T02:22:25;6.43;;;2.47;;
25155;SDS011;71253;51.496;7.606;2023-12-28T02:27:27;5.15;;;2.38;;
25155;SDS011;71253;51.496;7.606;2023-12-28T02:38:01;6.10;;;2.80;;
25155;SDS011;71253;51.496;7.606;2023-12-28T02:43:06;7.05;;;2.83;;
25155;SDS011;71253;51.496;7.606;2023-12-28T02:48:10;11.05;;;3.15;;
25155;SDS011;71253;51.496;7.606;2023-12-28T02:53:12;8.70;;;2.70;;
25155;SDS011;71253;51.496;7.606;2023-12-28T02:58:14;4.82;;;2.55;;
25155;SDS011;71253;51.496;7.606;2023-12-28T03:03:16;9.23;;;2.63;;
25155;SDS011;71253;51.496;7.606;2023-12-28T03:08:18;6.47;;;2.78;;
25155;SDS011;71253;51.496;7.606;2023-12-28T03:13:19;7.13;;;2.40;;
25155;SDS011;71253;51.496;7.606;2023-12-28T03:18:21;6.13;;;2.45;;
25155;SDS011;71253;51.496;7.606;2023-12-28T03:23:22;5.00;;;2.40;;
25155;SDS011;71253;51.496;7.606;2023-12-28T03:28:24;6.25;;;2.30;;
25155;SDS011;71253;51.496;7.606;2023-12-28T03:33:25;4.78;;;2.20;;
25155;SDS011;71253;51.496;7.606;2023-12-28T03:38:27;6.35;;;2.78;;
25155;SDS011;71253;51.496;7.606;2023-12-28T03:43:29;5.00;;;2.33;;
25155;SDS011;71253;51.496;7.606;2023-12-28T03:48:30;8.02;;;2.40;;
25155;SDS011;71253;51.496;7.606;2023-12-28T03:53:32;10.55;;;2.50;;
25155;SDS011;71253;51.496;7.606;2023-12-28T03:58:33;11.02;;;2.50;;
25155;SDS011;71253;51.496;7.606;2023-12-28T04:03:35;8.60;;;2.47;;
25155;SDS011;71253;51.496;7.606;2023-12-28T04:08:39;6.28;;;2.20;;
25155;SDS011;71253;51.496;7.606;2023-12-28T04:13:42;6.22;;;2.00;;
25155;SDS011;71253;51.496;7.606;2023-12-28T04:18:44;7.32;;;1.98;;
25155;SDS011;71253;51.496;7.606;2023-12-28T04:23:46;8.60;;;2.10;;
25155;SDS011;71253;51.496;7.606;2023-12-28T04:28:47;9.18;;;1.80;;
25155;SDS011;71253;51.496;7.606;2023-12-28T04:33:49;4.38;;;1.60;;
25155;SDS011;71253;51.496;7.606;2023-12-28T04:38:50;8.88;;;2.20;;
25155;SDS011;71253;51.496;7.606;2023-12-28T04:43:52;5.13;;;1.85;;
25155;SDS011;71253;51.496;7.606;2023-12-28T04:48:56;2.85;;;1.70;;
25155;SDS011;71253;51.496;7.606;2023-12-28T04:53:59;7.28;;;1.88;;
25155;SDS011;71253;51.496;7.606;2023-12-28T04:59:01;4.20;;;2.00;;
25155;SDS011;71253;51.496;7.606;2023-12-28T05:04:02;5.75;;;1.67;;
25155;SDS011;71253;51.496;7.606;2023-12-28T05:09:04;6.63;;;2.00;;
25155;SDS011;71253;51.496;7.606;2023-12-28T05:14:05;6.90;;;2.00;;
25155;SDS011;71253;51.496;7.606;2023-12-28T05:19:07;8.20;;;2.05;;
25155;SDS011;71253;51.496;7.606;2023-12-28T05:24:08;6.70;;;1.88;;
25155;SDS011;71253;51.496;7.606;2023-12-28T05:29:10;6.85;;;1.88;;
25155;SDS011;71253;51.496;7.606;2023-12-28T05:34:12;7.15;;;2.28;;
25155;SDS011;71253;51.496;7.606;2023-12-28T05:39:13;5.07;;;2.03;;
25155;SDS011;71253;51.496;7.606;2023-12-28T05:44:15;7.13;;;1.75;;
25155;SDS011;71253;51.496;7.606;2023-12-28T05:49:16;5.43;;;1.63;;
25155;SDS011;71253;51.496;7.606;2023-12-28T05:54:18;7.63;;;2.20;;
25155;SDS011;71253;51.496;7.606;2023-12-28T05:59:19;7.10;;;2.00;;
25155;SDS011;71253;51.496;7.606;2023-12-28T06:04:21;4.95;;;2.05;;
25155;SDS011;71253;51.496;7.606;2023-12-28T06:09:22;6.43;;;2.03;;
25155;SDS011;71253;51.496;7.606;2023-12-28T06:14:24;10.40;;;2.30;;
25155;SDS011;71253;51.496;7.606;2023-12-28T06:19:25;5.25;;;1.73;;
25155;SDS011;71253;51.496;7.606;2023-12-28T06:24:27;7.10;;;1.92;;
25155;SDS011;71253;51.496;7.606;2023-12-28T06:29:28;7.07;;;1.83;;
25155;SDS011;71253;51.496;7.606;2023-12-28T06:34:30;11.82;;;2.15;;
25155;SDS011;71253;51.496;7.606;2023-12-28T06:39:32;6.03;;;2.05;;
25155;SDS011;71253;51.496;7.606;2023-12-28T06:44:33;5.90;;;2.00;;
25155;SDS011;71253;51.496;7.606;2023-12-28T06:49:35;7.85;;;2.30;;
25155;SDS011;71253;51.496;7.606;2023-12-28T06:54:36;7.47;;;2.40;;
25155;SDS011;71253;51.496;7.606;2023-12-28T06:59:38;6.00;;;1.90;;
25155;SDS011;71253;51.496;7.606;2023-12-28T07:04:39;6.28;;;2.13;;
25155;SDS011;71253;51.496;7.606;2023-12-28T07:09:41;8.10;;;2.20;;
25155;SDS011;71253;51.496;7.606;2023-12-28T07:14:42;10.90;;;2.10;;
25155;SDS011;71253;51.496;7.606;2023-12-28T07:19:44;6.50;;;2.40;;
25155;SDS011;71253;51.496;7.606;2023-12-28T07:24:46;8.10;;;2.13;;
25155;SDS011;71253;51.496;7.606;2023-12-28T07:29:47;8.75;;;2.25;;
25155;SDS011;71253;51.496;7.606;2023-12-28T07:34:49;11.98;;;2.75;;
25155;SDS011;71253;51.496;7.606;2023-12-28T07:39:50;8.13;;;1.95;;
25155;SDS011;71253;51.496;7.606;2023-12-28T07:44:52;9.80;;;2.22;;
25155;SDS011;71253;51.496;7.606;2023-12-28T07:49:53;6.43;;;2.13;;
25155;SDS011;71253;51.496;7.606;2023-12-28T07:54:55;14.10;;;2.10;;
25155;SDS011;71253;51.496;7.606;2023-12-28T07:59:57;6.03;;;2.00;;
25155;SDS011;71253;51.496;7.606;2023-12-28T08:04:58;8.05;;;2.17;;
25155;SDS011;71253;51.496;7.606;2023-12-28T08:10:00;11.30;;;2.47;;
25155;SDS011;71253;51.496;7.606;2023-12-28T08:15:02;11.70;;;2.60;;
25155;SDS011;71253;51.496;7.606;2023-12-28T08:20:04;7.93;;;1.95;;
25155;SDS011;71253;51.496;7.606;2023-12-28T08:25:07;9.88;;;2.45;;
25155;SDS011;71253;51.496;7.606;2023-12-28T08:30:09;10.30;;;2.45;;
25155;SDS011;71253;51.496;7.606;2023-12-28T08:35:10;17.95;;;2.65;;
25155;SDS011;71253;51.496;7.606;2023-12-28T08:40:14;18.10;;;2.58;;
25155;SDS011;71253;51.496;7.606;2023-12-28T08:45:15;9.75;;;2.15;;
25155;SDS011;71253;51.496;7.606;2023-12-28T08:50:17;14.98;;;2.30;;
25155;SDS011;71253;51.496;7.606;2023-12-28T08:55:18;14.35;;;2.80;;
25155;SDS011;71253;51.496;7.606;2023-12-28T09:00:20;14.40;;;2.95;;
25155;SDS011;71253;51.496;7.606;2023-12-28T09:05:22;10.00;;;2.40;;
25155;SDS011;71253;51.496;7.606;2023-12-28T09:10:23;7.15;;;2.15;;
25155;SDS011;71253;51.496;7.606;2023-12-28T09:15:25;10.50;;;2.67;;
25155;SDS011;71253;51.496;7.606;2023-12-28T09:20:26;10.50;;;2.85;;
25155;SDS011;71253;51.496;7.606;2023-12-28T09:25:28;12.02;;;2.45;;
25155;SDS011;71253;51.496;7.606;2023-12-28T09:30:29;11.27;;;2.55;;
25155;SDS011;71253;51.496;7.606;2023-12-28T09:35:32;15.15;;;2.58;;
25155;SDS011;71253;51.496;7.606;2023-12-28T09:40:36;17.08;;;3.03;;
25155;SDS011;71253;51.496;7.606;2023-12-28T09:45:38;15.00;;;2.53;;
25155;SDS011;71253;51.496;7.606;2023-12-28T09:50:40;10.00;;;1.95;;
25155;SDS011;71253;51.496;7.606;2023-12-28T09:55:44;9.88;;;2.67;;
25155;SDS011;71253;51.496;7.606;2023-12-28T10:00:47;11.95;;;2.15;;
25155;SDS011;71253;51.496;7.606;2023-12-28T10:05:50;13.25;;;2.40;;
25155;SDS011;71253;51.496;7.606;2023-12-28T10:10:52;14.30;;;2.55;;
25155;SDS011;71253;51.496;7.606;2023-12-28T10:15:56;11.95;;;2.53;;
25155;SDS011;71253;51.496;7.606;2023-12-28T10:20:59;15.25;;;2.83;;
25155;SDS011;71253;51.496;7.606;2023-12-28T10:26:00;12.35;;;2.53;;
25155;SDS011;71253;51.496;7.606;2023-12-28T10:31:04;11.57;;;2.47;;
25155;SDS011;71253;51.496;7.606;2023-12-28T10:36:06;15.90;;;2.97;;
25155;SDS011;71253;51.496;7.606;2023-12-28T10:41:09;11.73;;;2.50;;
25155;SDS011;71253;51.496;7.606;2023-12-28T10:46:13;18.67;;;3.20;;
25155;SDS011;71253;51.496;7.606;2023-12-28T10:51:28;12.93;;;2.70;;
25155;SDS011;71253;51.496;7.606;2023-12-28T10:56:36;12.88;;;2.13;;
25155;SDS011;71253;51.496;7.606;2023-12-28T11:01:54;12.10;;;2.50;;
25155;SDS011;71253;51.496;7.606;2023-12-28T11:06:58;14.57;;;2.33;;
25155;SDS011;71253;51.496;7.606;2023-12-28T11:12:01;18.42;;;2.75;;
25155;SDS011;71253;51.496;7.606;2023-12-28T11:17:05;15.98;;;3.00;;
25155;SDS011;71253;51.496;7.606;2023-12-28T11:22:06;16.27;;;2.58;;
25155;SDS011;71253;51.496;7.606;2023-12-28T11:27:08;14.63;;;2.58;;
25155;SDS011;71253;51.496;7.606;2023-12-28T11:32:10;15.02;;;2.63;;
25155;SDS011;71253;51.496;7.606;2023-12-28T11:37:16;18.00;;;3.00;;
25155;SDS011;71253;51.496;7.606;2023-12-28T11:42:20;12.20;;;2.30;;
25155;SDS011;71253;51.496;7.606;2023-12-28T11:47:24;15.60;;;2.80;;
25155;SDS011;71253;51.496;7.606;2023-12-28T11:52:27;11.05;;;2.20;;
25155;SDS011;71253;51.496;7.606;2023-12-28T11:57:30;14.38;;;2.20;;
25155;SDS011;71253;51.496;7.606;2023-12-28T12:02:32;15.45;;;2.80;;
25155;SDS011;71253;51.496;7.606;2023-12-28T12:07:34;13.65;;;2.00;;
25155;SDS011;71253;51.496;7.606;2023-12-28T12:12:37;16.08;;;2.90;;
25155;SDS011;71253;51.496;7.606;2023-12-28T12:17:39;14.02;;;2.35;;
25155;SDS011;71253;51.496;7.606;2023-12-28T12:22:43;16.40;;;2.58;;
25155;SDS011;71253;51.496;7.606;2023-12-28T12:27:45;17.83;;;2.30;;
25155;SDS011;71253;51.496;7.606;2023-12-28T12:32:47;18.25;;;2.40;;
25155;SDS011;71253;51.496;7.606;2023-12-28T12:37:49;19.25;;;2.70;;
25155;SDS011;71253;51.496;7.606;2023-12-28T12:42:54;11.07;;;2.20;;
25155;SDS011;71253;51.496;7.606;2023-12-28T12:47:56;19.98;;;2.63;;
25155;SDS011;71253;51.496;7.606;2023-12-28T12:52:59;20.48;;;2.50;;
25155;SDS011;71253;51.496;7.606;2023-12-28T12:58:02;19.17;;;2.47;;
25155;SDS011;71253;51.496;7.606;2023-12-28T13:03:07;14.95;;;2.40;;
25155;SDS011;71253;51.496;7.606;2023-12-28T13:08:09;9.88;;;2.08;;
25155;SDS011;71253;51.496;7.606;2023-12-28T13:13:11;20.98;;;2.83;;
25155;SDS011;71253;51.496;7.606;2023-12-28T13:18:13;10.77;;;2.30;;
25155;SDS011;71253;51.496;7.606;2023-12-28T13:23:14;13.07;;;1.98;;
25155;SDS011;71253;51.496;7.606;2023-12-28T13:28:16;22.95;;;2.53;;
25155;SDS011;71253;51.496;7.606;2023-12-28T13:33:18;13.27;;;2.53;;
25155;SDS011;71253;51.496;7.606;2023-12-28T13:38:19;10.77;;;2.13;;
25155;SDS011;71253;51.496;7.606;2023-12-28T13:43:21;16.33;;;2.67;;
25155;SDS011;71253;51.496;7.606;2023-12-28T13:48:22;16.48;;;2.60;;
25155;SDS011;71253;51.496;7.606;2023-12-28T13:53:24;16.20;;;2.17;;
25155;SDS011;71253;51.496;7.606;2023-12-28T13:58:26;12.00;;;1.98;;
25155;SDS011;71253;51.496;7.606;2023-12-28T14:03:27;18.05;;;2.50;;
25155;SDS011;71253;51.496;7.606;2023-12-28T14:08:29;13.02;;;2.63;;
25155;SDS011;71253;51.496;7.606;2023-12-28T14:13:30;15.52;;;2.15;;
25155;SDS011;71253;51.496;7.606;2023-12-28T14:18:32;11.40;;;1.70;;
25155;SDS011;71253;51.496;7.606;2023-12-28T14:23:33;15.35;;;2.28;;
25155;SDS011;71253;51.496;7.606;2023-12-28T14:28:36;8.52;;;1.90;;
25155;SDS011;71253;51.496;7.606;2023-12-28T14:33:38;13.43;;;2.08;;
25155;SDS011;71253;51.496;7.606;2023-12-28T14:38:40;16.58;;;2.40;;
25155;SDS011;71253;51.496;7.606;2023-12-28T14:43:42;16.92;;;2.47;;
25155;SDS011;71253;51.496;7.606;2023-12-28T14:48:43;9.70;;;2.25;;
25155;SDS011;71253;51.496;7.606;2023-12-28T14:53:45;9.88;;;2.03;;
25155;SDS011;71253;51.496;7.606;2023-12-28T14:58:46;14.23;;;2.20;;
25155;SDS011;71253;51.496;7.606;2023-12-28T15:03:48;12.48;;;2.60;;
25155;SDS011;71253;51.496;7.606;2023-12-28T15:08:50;15.07;;;2.35;;
25155;SDS011;71253;51.496;7.606;2023-12-28T15:13:51;11.35;;;2.33;;
25155;SDS011;71253;51.496;7.606;2023-12-28T15:18:53;14.75;;;2.40;;
25155;SDS011;71253;51.496;7.606;2023-12-28T15:23:55;16.98;;;2.40;;
25155;SDS011;71253;51.496;7.606;2023-12-28T15:28:57;18.63;;;2.70;;
25155;SDS011;71253;51.496;7.606;2023-12-28T15:33:58;13.80;;;1.92;;
25155;SDS011;71253;51.496;7.606;2023-12-28T15:39:00;14.75;;;2.40;;
25155;SDS011;71253;51.496;7.606;2023-12-28T15:44:02;21.45;;;2.70;;
25155;SDS011;71253;51.496;7.606;2023-12-28T15:49:03;16.92;;;2.38;;
25155;SDS011;71253;51.496;7.606;2023-12-28T15:54:05;13.77;;;2.63;;
25155;SDS011;71253;51.496;7.606;2023-12-28T15:59:06;17.05;;;2.60;;
25155;SDS011;71253;51.496;7.606;2023-12-28T16:04:08;15.32;;;2.55;;
25155;SDS011;71253;51.496;7.606;2023-12-28T16:09:09;14.70;;;2.63;;
25155;SDS011;71253;51.496;7.606;2023-12-28T16:14:11;14.50;;;2.25;;
25155;SDS011;71253;51.496;7.606;2023-12-28T16:19:13;19.33;;;2.60;;
25155;SDS011;71253;51.496;7.606;2023-12-28T16:24:15;11.30;;;2.33;;
25155;SDS011;71253;51.496;7.606;2023-12-28T16:29:16;19.00;;;2.80;;
25155;SDS011;71253;51.496;7.606;2023-12-28T16:34:18;15.48;;;2.45;;
25155;SDS011;71253;51.496;7.606;2023-12-28T16:39:20;15.98;;;2.80;;
25155;SDS011;71253;51.496;7.606;2023-12-28T16:44:21;9.45;;;2.13;;
25155;SDS011;71253;51.496;7.606;2023-12-28T16:49:24;15.20;;;2.60;;
25155;SDS011;71253;51.496;7.606;2023-12-28T16:54:25;15.85;;;2.53;;
25155;SDS011;71253;51.496;7.606;2023-12-28T16:59:27;11.65;;;2.33;;
25155;SDS011;71253;51.496;7.606;2023-12-28T17:04:28;15.00;;;2.70;;
25155;SDS011;71253;51.496;7.606;2023-12-28T17:09:30;16.60;;;3.20;;
25155;SDS011;71253;51.496;7.606;2023-12-28T17:14:32;14.63;;;2.65;;
25155;SDS011;71253;51.496;7.606;2023-12-28T17:19:34;20.15;;;3.28;;
25155;SDS011;71253;51.496;7.606;2023-12-28T17:24:39;18.35;;;2.88;;
25155;SDS011;71253;51.496;7.606;2023-12-28T17:29:46;9.95;;;2.20;;
25155;SDS011;71253;51.496;7.606;2023-12-28T17:34:50;15.68;;;2.38;;
25155;SDS011;71253;51.496;7.606;2023-12-28T17:39:52;9.57;;;2.00;;
25155;SDS011;71253;51.496;7.606;2023-12-28T17:44:54;12.68;;;2.28;;
25155;SDS011;71253;51.496;7.606;2023-12-28T17:49:59;15.45;;;2.40;;
25155;SDS011;71253;51.496;7.606;2023-12-28T17:55:02;15.35;;;2.13;;
25155;SDS011;71253;51.496;7.606;2023-12-28T18:00:03;11.40;;;2.17;;
25155;SDS011;71253;51.496;7.606;2023-12-28T18:05:06;7.53;;;1.90;;
25155;SDS011;71253;51.496;7.606;2023-12-28T18:10:08;10.50;;;1.90;;
25155;SDS011;71253;51.496;7.606;2023-12-28T18:15:10;12.02;;;2.22;;
25155;SDS011;71253;51.496;7.606;2023-12-28T18:20:11;13.15;;;1.98;;
25155;SDS011;71253;51.496;7.606;2023-12-28T18:25:13;13.70;;;2.00;;
25155;SDS011;71253;51.496;7.606;2023-12-28T18:30:15;13.73;;;2.40;;
25155;SDS011;71253;51.496;7.606;2023-12-28T18:35:16;8.50;;;1.88;;
25155;SDS011;71253;51.496;7.606;2023-12-28T18:40:18;9.15;;;1.88;;
25155;SDS011;71253;51.496;7.606;2023-12-28T18:45:20;9.63;;;2.13;;
25155;SDS011;71253;51.496;7.606;2023-12-28T18:50:21;10.43;;;2.00;;
25155;SDS011;71253;51.496;7.606;2023-12-28T18:55:23;10.02;;;2.25;;
25155;SDS011;71253;51.496;7.606;2023-12-28T19:00:24;12.48;;;2.20;;
25155;SDS011;71253;51.496;7.606;2023-12-28T19:05:26;11.75;;;2.25;;
25155;SDS011;71253;51.496;7.606;2023-12-28T19:10:28;10.27;;;2.22;;
25155;SDS011;71253;51.496;7.606;2023-12-28T19:15:29;11.38;;;2.45;;
25155;SDS011;71253;51.496;7.606;2023-12-28T19:20:31;12.07;;;2.10;;
25155;SDS011;71253;51.496;7.606;2023-12-28T19:25:32;8.82;;;1.90;;
25155;SDS011;71253;51.496;7.606;2023-12-28T19:30:34;8.35;;;2.05;;
25155;SDS011;71253;51.496;7.606;2023-12-28T19:35:35;12.52;;;2.13;;
25155;SDS011;71253;51.496;7.606;2023-12-28T19:40:37;8.80;;;2.05;;
25155;SDS011;71253;51.496;7.606;2023-12-28T19:45:38;8.35;;;2.20;;
25155;SDS011;71253;51.496;7.606;2023-12-28T19:50:40;13.93;;;2.40;;
25155;SDS011;71253;51.496;7.606;2023-12-28T19:55:41;10.55;;;2.50;;
25155;SDS011;71253;51.496;7.606;2023-12-28T20:00:43;13.45;;;2.38;;
25155;SDS011;71253;51.496;7.606;2023-12-28T20:05:45;7.30;;;2.05;;
25155;SDS011;71253;51.496;7.606;2023-12-28T20:10:46;9.65;;;2.40;;
25155;SDS011;71253;51.496;7.606;2023-12-28T20:15:48;15.88;;;2.38;;
25155;SDS011;71253;51.496;7.606;2023-12-28T20:20:49;8.52;;;2.15;;
25155;SDS011;71253;51.496;7.606;2023-12-28T20:25:51;7.63;;;2.28;;
25155;SDS011;71253;51.496;7.606;2023-12-28T20:30:52;6.72;;;2.30;;
25155;SDS011;71253;51.496;7.606;2023-12-28T20:35:54;9.98;;;2.22;;
25155;SDS011;71253;51.496;7.606;2023-12-28T20:40:55;9.30;;;2.33;;
25155;SDS011;71253;51.496;7.606;2023-12-28T20:45:57;8.77;;;1.88;;
25155;SDS011;71253;51.496;7.606;2023-12-28T20:50:58;11.38;;;2.20;;
25155;SDS011;71253;51.496;7.606;2023-12-28T20:56:00;9.48;;;2.13;;
25155;SDS011;71253;51.496;7.606;2023-12-28T21:01:02;11.35;;;2.42;;
25155;SDS011;71253;51.496;7.606;2023-12-28T21:06:04;10.80;;;2.38;;
25155;SDS011;71253;51.496;7.606;2023-12-28T21:11:05;11.45;;;2.30;;
25155;SDS011;71253;51.496;7.606;2023-12-28T21:16:07;11.27;;;2.28;;
25155;SDS011;71253;51.496;7.606;2023-12-28T21:21:10;9.00;;;2.15;;
25155;SDS011;71253;51.496;7.606;2023-12-28T21:26:11;8.25;;;2.28;;
25155;SDS011;71253;51.496;7.606;2023-12-28T21:31:13;14.90;;;2.60;;
25155;SDS011;71253;51.496;7.606;2023-12-28T21:36:14;13.15;;;2.30;;
25155;SDS011;71253;51.496;7.606;2023-12-28T21:41:17;17.98;;;2.13;;
25155;SDS011;71253;51.496;7.606;2023-12-28T21:46:18;18.35;;;2.35;;
25155;SDS011;71253;51.496;7.606;2023-12-28T21:51:20;10.23;;;2.15;;
25155;SDS011;71253;51.496;7.606;2023-12-28T21:56:21;8.73;;;2.10;;
25155;SDS011;71253;51.496;7.606;2023-12-28T22:01:23;11.60;;;2.28;;
25155;SDS011;71253;51.496;7.606;2023-12-28T22:06:24;8.57;;;1.80;;
25155;SDS011;71253;51.496;7.606;2023-12-28T22:11:26;11.57;;;2.22;;
25155;SDS011;71253;51.496;7.606;2023-12-28T22:16:27;11.93;;;2.03;;
25155;SDS011;71253;51.496;7.606;2023-12-28T22:21:29;15.30;;;2.03;;
25155;SDS011;71253;51.496;7.606;2023-12-28T22:26:31;11.02;;;1.95;;
25155;SDS011;71253;51.496;7.606;2023-12-28T22:31:33;9.05;;;2.20;;
25155;SDS011;71253;51.496;7.606;2023-12-28T22:36:35;9.68;;;1.80;;
25155;SDS011;71253;51.496;7.606;2023-12-28T22:41:36;13.00;;;2.05;;
25155;SDS011;71253;51.496;7.606;2023-12-28T22:46:38;11.40;;;1.80;;
25155;SDS011;71253;51.496;7.606;2023-12-28T22:51:40;10.23;;;2.00;;
25155;SDS011;71253;51.496;7.606;2023-12-28T22:56:41;9.93;;;2.03;;
25155;SDS011;71253;51.496;7.606;2023-12-28T23:01:43;7.50;;;1.83;;
25155;SDS011;71253;51.496;7.606;2023-12-28T23:06:44;11.50;;;1.70;;
25155;SDS011;71253;51.496;7.606;2023-12-28T23:11:46;10.10;;;1.85;;
25155;SDS011;71253;51.496;7.606;2023-12-28T23:16:47;10.80;;;2.05;;
25155;SDS011;71253;51.496;7.606;2023-12-28T23:21:49;10.27;;;1.98;;
25155;SDS011;71253;51.496;7.606;2023-12-28T23:26:52;11.80;;;1.95;;
25155;SDS011;71253;51.496;7.606;2023-12-28T23:31:54;17.13;;;2.10;;
25155;SDS011;71253;51.496;7.606;2023-12-28T23:36:55;10.25;;;1.95;;
25155;SDS011;71253;51.496;7.606;2023-12-28T23:41:57;11.52;;;2.17;;
25155;SDS011;71253;51.496;7.606;2023-12-28T23:46:59;10.32;;;1.90;;
25155;SDS011;71253;51.496;7.606;2023-12-28T23:52:02;12.32;;;1.88;;
25155;SDS011;71253;51.496;7.606;2023-12-28T23:57:04;10.70;;;1.58;;
